SBOSBO MAH / LEMH
Speedbird OnlineSpeedbird Online MAH / LEMH

Menorca Airport
22:17 19°C

Location Menorca, Spain
Latitude: 39.86259841918945
Longitude: 4.218649864196777
Web Airport Website | Wikipedia
Altitude 92 Meter / 302 Feet
Distance 1,333 KM / 828 Miles
from London.
Time Zone UTC +2 hours (Europe/Madrid)
Codes IATA: MAH
ICAO: LEMH
Currency £1 equals EUR 1.12
Runways
RunwayLength (m)Surface
012550Asphalt
01L2350Asphalt
01R2100Asphalt
19L2100Asphalt
19R2350Asphalt
192550Asphalt
Radio
TypeDescriptionFrequency
APPAPP119.65
ATISATIS112.6
GNDGND121.75
TWRTWR118.2
Live ATC
METAR LEMH 242000Z 07009KT 9999 +SHRA FEW018 FEW025TCU 19/17 Q1012 RESHRA
TAF TAF AMD LEMH 241746Z 2417/2515 01009KT 9999 BKN030 TX27/2512Z TN17/2505Z TEMPO 2417/2515 3000 TSRA SCT020CB PROB40 TEMPO 2417/2506 VRB20G30KT 1500 +TSRAGR SCT020CB TEMPO 2423/2504 04020G30KT
Weather As Of 24 Sep 2022 22:17
Description Heavy intensity shower rain
Wind 17 km/h from East (70°)
Cloud Cover 20%
Precipitation Rain: none, Snow: none
Sunrise 07:32
Sunset 19:38
Lounges Sala VIP Tramuntana, Main terminal
Rotations During the last 90 days there were
53 flights from LGW
23 flights from LCY
1 flights from EDI
60 flights to LGW
23 flights to LCY


© 2017-2022 Speedbird Online